Island City, Indiana
Current Conditions -  °F | °C
As of 1:35 PM on Sunday 23 Nov 2014 (Local Time) from KDCY Reporting Station
Heavy Rain Heavy Rain  
Wind Chill: 52°   Ceiling: 2100
Heat Index: 52°   Visibility: 4mi
Dew Point: 52°   Wind: 8mph
Humidity: 100%   Direction: 130°SE
Pressure: 29.61"   Gusts: NA
Location:  39.0608°N, 87.1852°W
Report Text: KDCY 231835Z AUTO 13007KT 4SM +RA OVC021 11/11 A2961 RMK AO2 P0002 T01120112
Loading
Personal Weather Stations






























Interactive Weather Map New forecast layout! Learn more

10-Day Weather Forecast

Advertisements
Track Severe Weather on mobile